TKJ4145 LTFD-LTAC
Flight info
| Callsign | TKJ4145 |
|---|---|
| Flight time | 0h 58m |
| Altitude | 31000 |
| Route | BIMDU UZ713 INBET UN604 BIG UG8 IST UT302 VATCA UL333 LATGA |
| Aircraft | B738/M-SDE2E3FGHIRWXY/LB1 |
Departure
| Time | 2026-04-17 12:29 |
|---|---|
| Airport | Balıkesir Koca Seyit Airport (LTFD) |
Arrival
| Time | 2026-04-17 13:27 |
|---|---|
| Airport | Esenboğa International Airport (LTAC) |
| Time | Latitude | Longitude | Altitude | Speed | Heading |
|---|---|---|---|---|---|
| 2026-04-17 11:13 | 39.54905 | 27.01118 | 50 ft | 0 kts | 144° |
| 2026-04-17 12:16 | 39.54915 | 27.01108 | 50 ft | 4 kts | 144° |
| 2026-04-17 12:16 | 39.54935 | 27.01088 | 50 ft | 4 kts | 127° |
| 2026-04-17 12:16 | 39.54940 | 27.01063 | 50 ft | 4 kts | 60° |
| 2026-04-17 12:17 | 39.54928 | 27.01040 | 50 ft | 4 kts | 54° |
| 2026-04-17 12:17 | 39.54922 | 27.01029 | 50 ft | 0 kts | 54° |
| 2026-04-17 12:20 | 39.54922 | 27.01030 | 50 ft | 0 kts | 54° |
| 2026-04-17 12:20 | 39.54928 | 27.01040 | 50 ft | 3 kts | 54° |
| 2026-04-17 12:21 | 39.54946 | 27.01073 | 50 ft | 6 kts | 54° |
| 2026-04-17 12:21 | 39.54963 | 27.01098 | 50 ft | 4 kts | 37° |
| 2026-04-17 12:21 | 39.54988 | 27.01100 | 50 ft | 4 kts | 345° |
| 2026-04-17 12:21 | 39.55016 | 27.01081 | 50 ft | 5 kts | 327° |
| 2026-04-17 12:22 | 39.55055 | 27.01046 | 44 ft | 9 kts | 325° |
| 2026-04-17 12:22 | 39.55091 | 27.01012 | 46 ft | 5 kts | 324° |
| 2026-04-17 12:22 | 39.55124 | 27.00982 | 48 ft | 6 kts | 324° |
| 2026-04-17 12:22 | 39.55153 | 27.00954 | 48 ft | 3 kts | 324° |
| 2026-04-17 12:23 | 39.55173 | 27.00934 | 48 ft | 4 kts | 312° |
| 2026-04-17 12:23 | 39.55170 | 27.00893 | 47 ft | 6 kts | 236° |
| 2026-04-17 12:23 | 39.55141 | 27.00845 | 47 ft | 7 kts | 233° |
| 2026-04-17 12:23 | 39.55108 | 27.00789 | 45 ft | 8 kts | 233° |
| 2026-04-17 12:24 | 39.55071 | 27.00723 | 45 ft | 10 kts | 233° |
| 2026-04-17 12:24 | 39.55025 | 27.00643 | 45 ft | 12 kts | 233° |
| 2026-04-17 12:24 | 39.54973 | 27.00551 | 45 ft | 13 kts | 234° |
| 2026-04-17 12:24 | 39.54922 | 27.00461 | 45 ft | 12 kts | 234° |
| 2026-04-17 12:25 | 39.54869 | 27.00368 | 45 ft | 14 kts | 233° |
| 2026-04-17 12:25 | 39.54812 | 27.00268 | 46 ft | 14 kts | 234° |
| 2026-04-17 12:25 | 39.54758 | 27.00171 | 47 ft | 14 kts | 234° |
| 2026-04-17 12:25 | 39.54696 | 27.00063 | 44 ft | 16 kts | 233° |
| 2026-04-17 12:26 | 39.54652 | 26.99986 | 43 ft | 9 kts | 234° |
| 2026-04-17 12:26 | 39.54612 | 26.99914 | 42 ft | 11 kts | 234° |
| 2026-04-17 12:26 | 39.54563 | 26.99828 | 38 ft | 13 kts | 233° |
| 2026-04-17 12:26 | 39.54515 | 26.99744 | 39 ft | 7 kts | 230° |
| 2026-04-17 12:27 | 39.54472 | 26.99716 | 38 ft | 7 kts | 198° |
| 2026-04-17 12:27 | 39.54430 | 26.99686 | 41 ft | 7 kts | 230° |
| 2026-04-17 12:27 | 39.54436 | 26.99631 | 40 ft | 7 kts | 322° |
| 2026-04-17 12:27 | 39.54471 | 26.99658 | 41 ft | 7 kts | 65° |
| 2026-04-17 12:28 | 39.54499 | 26.99716 | 40 ft | 4 kts | 53° |
| 2026-04-17 12:28 | 39.54509 | 26.99734 | 40 ft | 0 kts | 53° |
| 2026-04-17 12:28 | 39.54510 | 26.99735 | 40 ft | 2 kts | 53° |
| 2026-04-17 12:29 | 39.54576 | 26.99852 | 42 ft | 40 kts | 54° |
| 2026-04-17 12:29 | 39.54895 | 27.00414 | 47 ft | 112 kts | 53° |
| 2026-04-17 12:29 | 39.55455 | 27.01458 | 158 ft | 161 kts | 57° |
| 2026-04-17 12:29 | 39.56130 | 27.02664 | 917 ft | 165 kts | 56° |
| 2026-04-17 12:30 | 39.56801 | 27.03861 | 1837 ft | 166 kts | 58° |
| 2026-04-17 12:30 | 39.57517 | 27.05141 | 2397 ft | 192 kts | 56° |
| 2026-04-17 12:30 | 39.58374 | 27.06651 | 2623 ft | 222 kts | 54° |
| 2026-04-17 12:30 | 39.59318 | 27.08309 | 3177 ft | 234 kts | 53° |
| 2026-04-17 12:31 | 39.60299 | 27.10033 | 3917 ft | 240 kts | 53° |
| 2026-04-17 12:31 | 39.61285 | 27.11771 | 4892 ft | 238 kts | 53° |
| 2026-04-17 12:31 | 39.62273 | 27.13512 | 5812 ft | 240 kts | 53° |
| 2026-04-17 12:31 | 39.63264 | 27.15261 | 6693 ft | 242 kts | 54° |
| 2026-04-17 12:32 | 39.64269 | 27.17040 | 7495 ft | 247 kts | 54° |
| 2026-04-17 12:32 | 39.65296 | 27.18862 | 8293 ft | 252 kts | 54° |
| 2026-04-17 12:32 | 39.66339 | 27.20711 | 9084 ft | 256 kts | 54° |
| 2026-04-17 12:32 | 39.67400 | 27.22593 | 9812 ft | 262 kts | 55° |
| 2026-04-17 12:33 | 39.68521 | 27.24588 | 10166 ft | 283 kts | 55° |
| 2026-04-17 12:33 | 39.69733 | 27.26752 | 10354 ft | 310 kts | 55° |
| 2026-04-17 12:33 | 39.71090 | 27.29063 | 10549 ft | 334 kts | 47° |
| 2026-04-17 12:33 | 39.73045 | 27.30808 | 11055 ft | 349 kts | 23° |
| 2026-04-17 12:34 | 39.75405 | 27.31407 | 11747 ft | 356 kts | 0° |
| 2026-04-17 12:34 | 39.77892 | 27.31191 | 12536 ft | 359 kts | 355° |
| 2026-04-17 12:34 | 39.80393 | 27.30843 | 13232 ft | 364 kts | 355° |
| 2026-04-17 12:34 | 39.82920 | 27.30499 | 13920 ft | 368 kts | 355° |
| 2026-04-17 12:35 | 39.85488 | 27.30185 | 14635 ft | 371 kts | 356° |
| 2026-04-17 12:35 | 39.88071 | 27.29890 | 15330 ft | 374 kts | 355° |
| 2026-04-17 12:35 | 39.90615 | 27.29132 | 15959 ft | 381 kts | 336° |
| 2026-04-17 12:35 | 39.92830 | 27.27237 | 16627 ft | 384 kts | 316° |
| 2026-04-17 12:37 | 40.09593 | 27.23749 | 20654 ft | 403 kts | 19° |
| 2026-04-17 12:37 | 40.10746 | 27.24244 | 20883 ft | 404 kts | 19° |
| 2026-04-17 12:38 | 40.13435 | 27.25375 | 21409 ft | 407 kts | 18° |
| 2026-04-17 12:38 | 40.16148 | 27.26496 | 21905 ft | 411 kts | 18° |
| 2026-04-17 12:38 | 40.18819 | 27.27865 | 22379 ft | 413 kts | 27° |
| 2026-04-17 12:38 | 40.21279 | 27.29818 | 22844 ft | 416 kts | 36° |
| 2026-04-17 12:39 | 40.23620 | 27.32067 | 23306 ft | 419 kts | 37° |
| 2026-04-17 12:39 | 40.25979 | 27.34331 | 23734 ft | 422 kts | 38° |
| 2026-04-17 12:39 | 40.28191 | 27.36878 | 24133 ft | 425 kts | 46° |
| 2026-04-17 12:39 | 40.30083 | 27.39862 | 24552 ft | 427 kts | 56° |
| 2026-04-17 12:40 | 40.31695 | 27.43142 | 24984 ft | 429 kts | 59° |
| 2026-04-17 12:40 | 40.33263 | 27.46483 | 25383 ft | 432 kts | 59° |
| 2026-04-17 12:40 | 40.34834 | 27.49864 | 25774 ft | 435 kts | 59° |
| 2026-04-17 12:40 | 40.36415 | 27.53250 | 26154 ft | 437 kts | 59° |
| 2026-04-17 12:41 | 40.38015 | 27.56651 | 26527 ft | 439 kts | 59° |
| 2026-04-17 12:41 | 40.39612 | 27.60021 | 26891 ft | 442 kts | 59° |
| 2026-04-17 12:41 | 40.41244 | 27.63452 | 27247 ft | 444 kts | 59° |
| 2026-04-17 12:41 | 40.42880 | 27.66888 | 27611 ft | 445 kts | 59° |
| 2026-04-17 12:42 | 40.44521 | 27.70337 | 28073 ft | 444 kts | 59° |
| 2026-04-17 12:42 | 40.46153 | 27.73769 | 28584 ft | 441 kts | 60° |
| 2026-04-17 12:42 | 40.47776 | 27.77187 | 29069 ft | 440 kts | 60° |
| 2026-04-17 12:42 | 40.49391 | 27.80593 | 29479 ft | 439 kts | 60° |
| 2026-04-17 12:43 | 40.51010 | 27.84012 | 29907 ft | 438 kts | 60° |
| 2026-04-17 12:43 | 40.52613 | 27.87404 | 30319 ft | 437 kts | 60° |
| 2026-04-17 12:43 | 40.54219 | 27.90802 | 30690 ft | 437 kts | 60° |
| 2026-04-17 12:43 | 40.55807 | 27.94167 | 30937 ft | 439 kts | 60° |
| 2026-04-17 12:44 | 40.57399 | 27.97613 | 30918 ft | 440 kts | 64° |
| 2026-04-17 12:44 | 40.59382 | 28.05098 | 30948 ft | 431 kts | 82° |
| 2026-04-17 12:45 | 40.59782 | 28.12930 | 30936 ft | 428 kts | 91° |
| 2026-04-17 12:45 | 40.59912 | 28.20783 | 30939 ft | 429 kts | 91° |
| 2026-04-17 12:46 | 40.60055 | 28.28641 | 30932 ft | 430 kts | 91° |
| 2026-04-17 12:46 | 40.60222 | 28.36528 | 30938 ft | 431 kts | 91° |
| 2026-04-17 12:47 | 40.60393 | 28.44365 | 30935 ft | 431 kts | 91° |
| 2026-04-17 12:47 | 40.60563 | 28.52252 | 30934 ft | 431 kts | 91° |
| 2026-04-17 12:48 | 40.60727 | 28.60147 | 30923 ft | 432 kts | 91° |
| 2026-04-17 12:48 | 40.60886 | 28.68055 | 30926 ft | 432 kts | 91° |
| 2026-04-17 12:49 | 40.61038 | 28.75959 | 30924 ft | 432 kts | 91° |
| 2026-04-17 12:49 | 40.61185 | 28.83864 | 30932 ft | 432 kts | 91° |
| 2026-04-17 12:50 | 40.61327 | 28.91775 | 30927 ft | 433 kts | 91° |
| 2026-04-17 12:50 | 40.61464 | 28.99704 | 30924 ft | 433 kts | 91° |
| 2026-04-17 12:51 | 40.61522 | 29.03166 | 30924 ft | 433 kts | 91° |
| 2026-04-17 12:51 | 40.61629 | 29.09694 | 30936 ft | 433 kts | 91° |
| 2026-04-17 12:52 | 40.61754 | 29.17638 | 30925 ft | 434 kts | 91° |
| 2026-04-17 12:52 | 40.61874 | 29.25590 | 30921 ft | 434 kts | 91° |
| 2026-04-17 12:53 | 40.61988 | 29.33548 | 30916 ft | 435 kts | 91° |
| 2026-04-17 12:53 | 40.62097 | 29.41508 | 30915 ft | 435 kts | 91° |
| 2026-04-17 12:54 | 40.62200 | 29.49464 | 30921 ft | 435 kts | 92° |
| 2026-04-17 12:54 | 40.62298 | 29.57426 | 30912 ft | 434 kts | 92° |
| 2026-04-17 12:55 | 40.62390 | 29.65322 | 30922 ft | 434 kts | 92° |
| 2026-04-17 12:55 | 40.62477 | 29.73275 | 30904 ft | 434 kts | 92° |
| 2026-04-17 12:56 | 40.62558 | 29.81207 | 30913 ft | 433 kts | 92° |
| 2026-04-17 12:56 | 40.62634 | 29.89115 | 30921 ft | 432 kts | 92° |
| 2026-04-17 12:57 | 40.62704 | 29.97010 | 30930 ft | 431 kts | 92° |
| 2026-04-17 12:57 | 40.62768 | 30.04923 | 30932 ft | 432 kts | 92° |
| 2026-04-17 12:58 | 40.62827 | 30.12782 | 30939 ft | 433 kts | 92° |
| 2026-04-17 12:58 | 40.62881 | 30.20720 | 30934 ft | 434 kts | 92° |
| 2026-04-17 12:59 | 40.62930 | 30.28679 | 30938 ft | 435 kts | 92° |
| 2026-04-17 12:59 | 40.62975 | 30.36622 | 30637 ft | 428 kts | 92° |
| 2026-04-17 12:59 | 40.62996 | 30.40502 | 30381 ft | 419 kts | 92° |
| 2026-04-17 13:00 | 40.63015 | 30.44302 | 30121 ft | 411 kts | 92° |
| 2026-04-17 13:00 | 40.63030 | 30.48047 | 29862 ft | 406 kts | 92° |
| 2026-04-17 13:00 | 40.63044 | 30.51764 | 29622 ft | 406 kts | 92° |
| 2026-04-17 13:00 | 40.63056 | 30.55483 | 29381 ft | 406 kts | 92° |
| 2026-04-17 13:01 | 40.63068 | 30.59161 | 29137 ft | 407 kts | 92° |
| 2026-04-17 13:01 | 40.63080 | 30.62935 | 28885 ft | 407 kts | 92° |
| 2026-04-17 13:01 | 40.63090 | 30.66604 | 28642 ft | 407 kts | 92° |
| 2026-04-17 13:01 | 40.63043 | 30.70319 | 28389 ft | 405 kts | 97° |
| 2026-04-17 13:02 | 40.62594 | 30.73960 | 28129 ft | 401 kts | 107° |
| 2026-04-17 13:02 | 40.61858 | 30.77496 | 27898 ft | 400 kts | 109° |
| 2026-04-17 13:02 | 40.61088 | 30.81007 | 27647 ft | 399 kts | 109° |
| 2026-04-17 13:02 | 40.60314 | 30.84515 | 27397 ft | 398 kts | 109° |
| 2026-04-17 13:03 | 40.59549 | 30.88021 | 27140 ft | 397 kts | 109° |
| 2026-04-17 13:03 | 40.58797 | 30.91510 | 26895 ft | 396 kts | 108° |
| 2026-04-17 13:03 | 40.58052 | 30.94994 | 26645 ft | 395 kts | 108° |
| 2026-04-17 13:03 | 40.57313 | 30.98468 | 26388 ft | 394 kts | 108° |
| 2026-04-17 13:04 | 40.56576 | 31.01929 | 26137 ft | 392 kts | 108° |
| 2026-04-17 13:04 | 40.55843 | 31.05375 | 25885 ft | 391 kts | 108° |
| 2026-04-17 13:04 | 40.55111 | 31.08805 | 25622 ft | 389 kts | 108° |
| 2026-04-17 13:04 | 40.54382 | 31.12220 | 25393 ft | 388 kts | 108° |
| 2026-04-17 13:05 | 40.53651 | 31.15633 | 25143 ft | 387 kts | 108° |
| 2026-04-17 13:05 | 40.52922 | 31.19033 | 24888 ft | 386 kts | 108° |
| 2026-04-17 13:05 | 40.52193 | 31.22426 | 24637 ft | 385 kts | 108° |
| 2026-04-17 13:05 | 40.51463 | 31.25817 | 24390 ft | 385 kts | 109° |
| 2026-04-17 13:06 | 40.50735 | 31.29194 | 24140 ft | 384 kts | 109° |
| 2026-04-17 13:06 | 40.50009 | 31.32558 | 23891 ft | 383 kts | 109° |
| 2026-04-17 13:06 | 40.49281 | 31.35928 | 23641 ft | 382 kts | 109° |
| 2026-04-17 13:06 | 40.48556 | 31.39281 | 23396 ft | 381 kts | 109° |
| 2026-04-17 13:07 | 40.47832 | 31.42624 | 23148 ft | 380 kts | 109° |
| 2026-04-17 13:07 | 40.47109 | 31.45954 | 22896 ft | 378 kts | 109° |
| 2026-04-17 13:07 | 40.46389 | 31.49269 | 22648 ft | 377 kts | 109° |
| 2026-04-17 13:07 | 40.45671 | 31.52571 | 22402 ft | 374 kts | 109° |
| 2026-04-17 13:08 | 40.44967 | 31.55811 | 22150 ft | 372 kts | 109° |
| 2026-04-17 13:08 | 40.44259 | 31.59061 | 21899 ft | 370 kts | 109° |
| 2026-04-17 13:08 | 40.43552 | 31.62303 | 21652 ft | 368 kts | 109° |
| 2026-04-17 13:08 | 40.42850 | 31.65517 | 21399 ft | 365 kts | 108° |
| 2026-04-17 13:09 | 40.42151 | 31.68715 | 21145 ft | 363 kts | 108° |
| 2026-04-17 13:09 | 40.41458 | 31.71880 | 20895 ft | 360 kts | 108° |
| 2026-04-17 13:09 | 40.40766 | 31.75036 | 20639 ft | 358 kts | 108° |
| 2026-04-17 13:09 | 40.40078 | 31.78168 | 20389 ft | 356 kts | 108° |
| 2026-04-17 13:10 | 40.39395 | 31.81275 | 20141 ft | 353 kts | 108° |
| 2026-04-17 13:10 | 40.38715 | 31.84364 | 19891 ft | 351 kts | 108° |
| 2026-04-17 13:10 | 40.38037 | 31.87441 | 19646 ft | 350 kts | 108° |
| 2026-04-17 13:10 | 40.37363 | 31.90497 | 19384 ft | 348 kts | 108° |
| 2026-04-17 13:11 | 40.36690 | 31.93536 | 19144 ft | 346 kts | 108° |
| 2026-04-17 13:11 | 40.36018 | 31.96555 | 18891 ft | 344 kts | 109° |
| 2026-04-17 13:11 | 40.35338 | 31.99516 | 18645 ft | 342 kts | 109° |
| 2026-04-17 13:11 | 40.34649 | 32.02495 | 18399 ft | 340 kts | 109° |
| 2026-04-17 13:12 | 40.33964 | 32.05459 | 18147 ft | 339 kts | 109° |
| 2026-04-17 13:12 | 40.33288 | 32.11489 | 17628 ft | 337 kts | 84° |
| 2026-04-17 13:12 | 40.33631 | 32.14518 | 17288 ft | 336 kts | 82° |
| 2026-04-17 13:13 | 40.34015 | 32.17531 | 16934 ft | 334 kts | 82° |
| 2026-04-17 13:13 | 40.34395 | 32.20528 | 16585 ft | 333 kts | 83° |
| 2026-04-17 13:13 | 40.34760 | 32.23519 | 16231 ft | 331 kts | 83° |
| 2026-04-17 13:13 | 40.35112 | 32.26501 | 15878 ft | 330 kts | 83° |
| 2026-04-17 13:14 | 40.35454 | 32.29463 | 15528 ft | 328 kts | 83° |
| 2026-04-17 13:14 | 40.35793 | 32.32413 | 15174 ft | 326 kts | 83° |
| 2026-04-17 13:14 | 40.35846 | 32.35350 | 14795 ft | 321 kts | 103° |
| 2026-04-17 13:14 | 40.35333 | 32.38178 | 14491 ft | 317 kts | 107° |
| 2026-04-17 13:15 | 40.34769 | 32.40967 | 14128 ft | 316 kts | 107° |
| 2026-04-17 13:15 | 40.34206 | 32.43729 | 13712 ft | 317 kts | 107° |
| 2026-04-17 13:15 | 40.33645 | 32.46516 | 13449 ft | 314 kts | 107° |
| 2026-04-17 13:15 | 40.33190 | 32.48807 | 13330 ft | 307 kts | 107° |
| 2026-04-17 13:16 | 40.32659 | 32.51492 | 13178 ft | 300 kts | 107° |
| 2026-04-17 13:16 | 40.32145 | 32.54114 | 13035 ft | 293 kts | 107° |
| 2026-04-17 13:16 | 40.31645 | 32.56663 | 12912 ft | 285 kts | 107° |
| 2026-04-17 13:16 | 40.31154 | 32.59159 | 12672 ft | 282 kts | 107° |
| 2026-04-17 13:17 | 40.30665 | 32.61642 | 12407 ft | 280 kts | 107° |
| 2026-04-17 13:17 | 40.30170 | 32.64067 | 12128 ft | 277 kts | 112° |
| 2026-04-17 13:17 | 40.29160 | 32.66148 | 11849 ft | 269 kts | 140° |
| 2026-04-17 13:17 | 40.27576 | 32.67347 | 11585 ft | 262 kts | 165° |
| 2026-04-17 13:18 | 40.25785 | 32.67605 | 11309 ft | 259 kts | 186° |
| 2026-04-17 13:18 | 40.24023 | 32.67147 | 11047 ft | 258 kts | 193° |
| 2026-04-17 13:18 | 40.22278 | 32.66571 | 10767 ft | 258 kts | 194° |
| 2026-04-17 13:18 | 40.20551 | 32.65993 | 10547 ft | 255 kts | 194° |
| 2026-04-17 13:19 | 40.18828 | 32.65423 | 10282 ft | 255 kts | 193° |
| 2026-04-17 13:19 | 40.17110 | 32.64864 | 10029 ft | 255 kts | 193° |
| 2026-04-17 13:19 | 40.15391 | 32.64310 | 9758 ft | 254 kts | 193° |
| 2026-04-17 13:19 | 40.13693 | 32.63767 | 9489 ft | 253 kts | 192° |
| 2026-04-17 13:20 | 40.11982 | 32.63220 | 9226 ft | 253 kts | 192° |
| 2026-04-17 13:20 | 40.10251 | 32.62710 | 8954 ft | 251 kts | 184° |
| 2026-04-17 13:20 | 40.08594 | 32.63051 | 8790 ft | 241 kts | 152° |
| 2026-04-17 13:20 | 40.07323 | 32.64389 | 8693 ft | 236 kts | 126° |
| 2026-04-17 13:21 | 40.06590 | 32.66295 | 8610 ft | 238 kts | 106° |
| 2026-04-17 13:21 | 40.06170 | 32.68415 | 8480 ft | 245 kts | 103° |
| 2026-04-17 13:21 | 40.05785 | 32.70611 | 8226 ft | 248 kts | 102° |
| 2026-04-17 13:21 | 40.05326 | 32.72750 | 7906 ft | 244 kts | 116° |
| 2026-04-17 13:22 | 40.04408 | 32.74603 | 7587 ft | 242 kts | 126° |
| 2026-04-17 13:22 | 40.03396 | 32.76344 | 7248 ft | 240 kts | 126° |
| 2026-04-17 13:22 | 40.02395 | 32.78069 | 6931 ft | 237 kts | 126° |
| 2026-04-17 13:22 | 40.01419 | 32.79780 | 6596 ft | 231 kts | 125° |
| 2026-04-17 13:23 | 40.00485 | 32.81432 | 6296 ft | 222 kts | 125° |
| 2026-04-17 13:23 | 39.99590 | 32.83024 | 5984 ft | 213 kts | 124° |
| 2026-04-17 13:23 | 39.98915 | 32.84672 | 5649 ft | 202 kts | 98° |
| 2026-04-17 13:23 | 39.99157 | 32.86341 | 5543 ft | 188 kts | 59° |
| 2026-04-17 13:24 | 40.00034 | 32.87552 | 5398 ft | 182 kts | 40° |
| 2026-04-17 13:24 | 40.01043 | 32.88501 | 5233 ft | 176 kts | 36° |
| 2026-04-17 13:24 | 40.02046 | 32.89384 | 5084 ft | 172 kts | 38° |
| 2026-04-17 13:24 | 40.02999 | 32.90272 | 4967 ft | 165 kts | 39° |
| 2026-04-17 13:25 | 40.03922 | 32.91152 | 4848 ft | 167 kts | 40° |
| 2026-04-17 13:25 | 40.04543 | 32.91748 | 4765 ft | 167 kts | 40° |
| 2026-04-17 13:25 | 40.05473 | 32.92638 | 4557 ft | 164 kts | 39° |
| 2026-04-17 13:25 | 40.06676 | 32.93789 | 4290 ft | 162 kts | 40° |
| 2026-04-17 13:26 | 40.07583 | 32.94659 | 4069 ft | 161 kts | 40° |
| 2026-04-17 13:26 | 40.08482 | 32.95519 | 3848 ft | 160 kts | 40° |
| 2026-04-17 13:26 | 40.09379 | 32.96378 | 3638 ft | 160 kts | 39° |
| 2026-04-17 13:26 | 40.10275 | 32.97245 | 3421 ft | 159 kts | 39° |
| 2026-04-17 13:27 | 40.10875 | 32.97794 | 3292 ft | 158 kts | 38° |
| 2026-04-17 13:27 | 40.11737 | 32.98627 | 3113 ft | 149 kts | 39° |
| 2026-04-17 13:27 | 40.12474 | 32.99337 | 3119 ft | 110 kts | 36° |
| 2026-04-17 13:27 | 40.12923 | 32.99769 | 3123 ft | 27 kts | 37° |
| 2026-04-17 13:28 | 40.12964 | 32.99812 | 3122 ft | 6 kts | 44° |
| 2026-04-17 13:28 | 40.12988 | 32.99851 | 3124 ft | 5 kts | 53° |
| 2026-04-17 13:28 | 40.13009 | 32.99892 | 3124 ft | 5 kts | 57° |
| 2026-04-17 13:28 | 40.13028 | 32.99933 | 3124 ft | 5 kts | 60° |
| 2026-04-17 13:29 | 40.13044 | 32.99976 | 3125 ft | 5 kts | 65° |
| 2026-04-17 13:29 | 40.13054 | 33.00005 | 3125 ft | 0 kts | 66° |
| 2026-04-17 13:30 | 40.13055 | 33.00006 | 3125 ft | 1 kts | 66° |
| 2026-04-17 13:31 | 40.13061 | 33.00023 | 3125 ft | 4 kts | 66° |
| 2026-04-17 13:31 | 40.13074 | 33.00063 | 3125 ft | 5 kts | 66° |
| 2026-04-17 13:31 | 40.13088 | 33.00108 | 3125 ft | 5 kts | 75° |
| 2026-04-17 13:31 | 40.13084 | 33.00155 | 3125 ft | 5 kts | 118° |
| 2026-04-17 13:32 | 40.13053 | 33.00177 | 3123 ft | 5 kts | 173° |
| 2026-04-17 13:32 | 40.13020 | 33.00161 | 3125 ft | 5 kts | 210° |
| 2026-04-17 13:32 | 40.12989 | 33.00134 | 3125 ft | 6 kts | 215° |
| 2026-04-17 13:32 | 40.12956 | 33.00103 | 3124 ft | 6 kts | 215° |
| 2026-04-17 13:33 | 40.12923 | 33.00072 | 3124 ft | 6 kts | 215° |
| 2026-04-17 13:33 | 40.12885 | 33.00036 | 3121 ft | 7 kts | 217° |
| 2026-04-17 13:33 | 40.12845 | 32.99996 | 3123 ft | 8 kts | 217° |
| 2026-04-17 13:33 | 40.12801 | 32.99954 | 3123 ft | 8 kts | 217° |
| 2026-04-17 13:34 | 40.12755 | 32.99909 | 3122 ft | 8 kts | 216° |
| 2026-04-17 13:34 | 40.12709 | 32.99867 | 3122 ft | 8 kts | 215° |
| 2026-04-17 13:34 | 40.12665 | 32.99825 | 3122 ft | 8 kts | 216° |
| 2026-04-17 13:34 | 40.12622 | 32.99784 | 3122 ft | 7 kts | 216° |
| 2026-04-17 13:35 | 40.12581 | 32.99744 | 3121 ft | 7 kts | 216° |
| 2026-04-17 13:35 | 40.12541 | 32.99706 | 3121 ft | 7 kts | 216° |
| 2026-04-17 13:35 | 40.12501 | 32.99668 | 3121 ft | 7 kts | 216° |
| 2026-04-17 13:35 | 40.12456 | 32.99625 | 3120 ft | 8 kts | 216° |
| 2026-04-17 13:36 | 40.12407 | 32.99578 | 3119 ft | 9 kts | 216° |
| 2026-04-17 13:36 | 40.12354 | 32.99528 | 3119 ft | 10 kts | 216° |
| 2026-04-17 13:36 | 40.12298 | 32.99475 | 3118 ft | 10 kts | 216° |
| 2026-04-17 13:36 | 40.12244 | 32.99422 | 3117 ft | 10 kts | 216° |
| 2026-04-17 13:37 | 40.12190 | 32.99371 | 3117 ft | 9 kts | 216° |
| 2026-04-17 13:37 | 40.12138 | 32.99321 | 3116 ft | 9 kts | 216° |
| 2026-04-17 13:37 | 40.12085 | 32.99271 | 3116 ft | 10 kts | 216° |
| 2026-04-17 13:37 | 40.12028 | 32.99216 | 3115 ft | 11 kts | 216° |
| 2026-04-17 13:38 | 40.11967 | 32.99158 | 3114 ft | 11 kts | 216° |
| 2026-04-17 13:38 | 40.11907 | 32.99101 | 3113 ft | 9 kts | 216° |
| 2026-04-17 13:38 | 40.11866 | 32.99061 | 3113 ft | 7 kts | 216° |
| 2026-04-17 13:38 | 40.11825 | 32.99039 | 3112 ft | 6 kts | 181° |
| 2026-04-17 13:39 | 40.11796 | 32.99061 | 3112 ft | 4 kts | 134° |
| 2026-04-17 13:39 | 40.11773 | 32.99090 | 3112 ft | 4 kts | 139° |
| 2026-04-17 13:39 | 40.11750 | 32.99110 | 3112 ft | 4 kts | 153° |
| 2026-04-17 13:39 | 40.11724 | 32.99122 | 3112 ft | 4 kts | 164° |
| 2026-04-17 13:40 | 40.11699 | 32.99133 | 3112 ft | 4 kts | 158° |
| 2026-04-17 13:40 | 40.11675 | 32.99148 | 3112 ft | 4 kts | 153° |
| 2026-04-17 13:40 | 40.11656 | 32.99162 | 3112 ft | 2 kts | 150° |
| 2026-04-17 13:40 | 40.11642 | 32.99172 | 3112 ft | 2 kts | 150° |
| 2026-04-17 13:41 | 40.11634 | 32.99179 | 3112 ft | 0 kts | 149° |